Time;durP1;ratioP1;P1;durP2;ratioP2;P2;SDS_P1;SDS_P2;PMS_P1;PMS_P2;Temp;Humidity;BMP_temperature;BMP_pressure;BME280_temperature;BME280_humidity;BME280_pressure;Samples;Min_cycle;Max_cycle;Signal;HPM_P1;HPM_P2
2022/12/12 00:00:57;;;;;;;21.50;13.10;;;;;;;-3.16;82.50;98582.49;99673;1298;138277;-69
2022/12/12 00:03:27;;;;;;;24.00;13.60;;;;;;;-3.17;82.26;98583.17;99815;1298;98303;-69
2022/12/12 00:05:54;;;;;;;22.40;13.50;;;;;;;-3.18;82.28;98581.15;99622;1299;138196;-69
2022/12/12 00:08:18;;;;;;;23.30;13.80;;;;;;;-3.20;82.13;98585.23;99810;1295;97878;-69
2022/12/12 00:10:41;;;;;;;23.70;14.30;;;;;;;-3.20;82.61;98585.58;99802;1301;111515;-69
2022/12/12 00:13:05;;;;;;;23.60;14.10;;;;;;;-3.19;82.75;98584.72;99836;1297;138283;-69
2022/12/12 00:15:28;;;;;;;25.00;15.00;;;;;;;-3.16;82.76;98583.52;99926;1302;98493;-70
2022/12/12 00:17:52;;;;;;;23.10;13.90;;;;;;;-3.14;82.60;98575.52;99835;1300;138328;-70
2022/12/12 00:20:16;;;;;;;21.80;13.90;;;;;;;-3.09;82.94;98575.65;99919;1300;98574;-70
2022/12/12 00:22:39;;;;;;;23.90;14.60;;;;;;;-3.03;82.52;98573.09;99914;1291;111076;-70
2022/12/12 00:25:05;;;;;;;22.70;14.80;;;;;;;-3.00;82.53;98571.89;99833;1295;139440;-70
2022/12/12 00:27:31;;;;;;;24.20;15.20;;;;;;;-2.99;82.39;98567.45;99987;1298;98388;-69
2022/12/12 00:29:55;;;;;;;27.30;16.20;;;;;;;-2.98;82.46;98562.86;99745;1295;137586;-69
2022/12/12 00:32:19;;;;;;;24.10;14.70;;;;;;;-3.00;82.21;98563.90;99963;1300;97871;-70
2022/12/12 00:34:42;;;;;;;26.10;15.70;;;;;;;-3.02;82.34;98563.40;99974;1298;110896;-68
2022/12/12 00:37:05;;;;;;;26.30;15.50;;;;;;;-3.06;82.58;98568.33;99777;1297;137674;-67
2022/12/12 00:39:29;;;;;;;26.60;15.00;;;;;;;-3.07;82.41;98573.77;99924;1300;97832;-68
2022/12/12 00:41:53;;;;;;;22.60;15.10;;;;;;;-3.08;82.39;98577.52;99799;1298;138238;-69
2022/12/12 00:44:17;;;;;;;25.50;15.00;;;;;;;-3.08;82.36;98574.27;98456;1298;1002648;-68
2022/12/12 00:46:41;;;;;;;25.70;15.00;;;;;;;-3.10;82.35;98569.02;99943;1295;111830;-68
2022/12/12 00:49:05;;;;;;;23.10;14.40;;;;;;;-3.11;82.46;98563.42;99787;1300;139901;-68
2022/12/12 00:51:30;;;;;;;22.20;14.30;;;;;;;-3.12;82.55;98563.77;99957;1297;98336;-68
2022/12/12 00:53:54;;;;;;;25.10;15.10;;;;;;;-3.11;82.61;98566.99;99746;1291;139583;-68
2022/12/12 00:56:19;;;;;;;26.60;15.20;;;;;;;-3.10;82.81;98567.16;99890;1284;97807;-68
2022/12/12 00:58:43;;;;;;;24.10;14.80;;;;;;;-3.10;82.81;98572.42;99879;1290;110518;-68
2022/12/12 01:01:10;;;;;;;27.40;15.30;;;;;;;-3.08;82.72;98569.18;99789;1302;139305;-70
2022/12/12 01:03:34;;;;;;;24.10;14.90;;;;;;;-3.04;82.63;98563.23;99884;1298;97744;-68
2022/12/12 01:05:58;;;;;;;23.20;14.40;;;;;;;-3.02;82.41;98556.77;99776;1300;138403;-68
2022/12/12 01:08:21;;;;;;;24.30;14.20;;;;;;;-3.04;82.63;98552.86;99896;1302;97875;-68
2022/12/12 01:10:45;;;;;;;23.50;14.90;;;;;;;-3.06;82.52;98552.34;99895;1300;109864;-68
2022/12/12 01:13:08;;;;;;;27.60;15.00;;;;;;;-3.05;82.84;98555.41;99789;1297;137635;-68
2022/12/12 01:15:32;;;;;;;27.70;15.80;;;;;;;-3.04;82.89;98549.64;99927;1302;97829;-68
2022/12/12 01:17:56;;;;;;;29.00;15.80;;;;;;;-3.06;82.85;98544.70;99795;1298;137938;-70
2022/12/12 01:20:22;;;;;;;28.50;15.50;;;;;;;-3.10;82.56;98542.34;99877;1292;97831;-69
2022/12/12 01:22:46;;;;;;;24.40;15.30;;;;;;;-3.10;83.00;98541.48;99861;1299;111469;-68
2022/12/12 01:25:10;;;;;;;26.30;15.40;;;;;;;-3.09;82.86;98536.54;99746;1291;138771;-68
2022/12/12 01:27:34;;;;;;;25.50;14.80;;;;;;;-3.06;82.91;98532.45;99931;1295;97821;-68
2022/12/12 01:30:00;;;;;;;23.90;14.70;;;;;;;-3.07;82.65;98533.14;99805;1296;138633;-70
2022/12/12 01:32:24;;;;;;;23.90;14.70;;;;;;;-3.05;82.98;98532.63;99824;1299;97836;-70
2022/12/12 01:34:47;;;;;;;27.30;15.90;;;;;;;-3.00;82.92;98536.69;99879;1303;111444;-70
2022/12/12 01:37:11;;;;;;;25.10;14.60;;;;;;;-2.97;83.03;98526.46;99709;1300;137680;-68
2022/12/12 01:39:34;;;;;;;24.60;15.50;;;;;;;-2.96;82.80;98524.25;99868;1291;97576;-68
2022/12/12 01:41:58;;;;;;;28.80;15.80;;;;;;;-2.92;83.05;98521.50;99759;1297;138305;-69
2022/12/12 01:44:40;;;;;;;26.20;16.00;;;;;;;-2.93;82.70;98519.80;99931;1300;97877;-68
2022/12/12 01:47:04;;;;;;;27.00;15.60;;;;;;;-2.91;83.01;98514.18;99892;1292;112200;-70
2022/12/12 01:49:27;;;;;;;23.70;14.80;;;;;;;-2.93;83.08;98514.37;99767;1295;137516;-70
2022/12/12 01:51:56;;;;;;;26.70;15.20;;;;;;;-2.96;83.04;98512.52;99821;1298;97855;-68
2022/12/12 01:54:23;;;;;;;24.80;15.50;;;;;;;-2.99;82.85;98514.23;99761;1300;139315;-68
2022/12/12 01:56:49;;;;;;;21.90;14.40;;;;;;;-2.97;83.03;98514.56;99803;1293;97861;-68
2022/12/12 01:59:15;;;;;;;22.30;12.80;;;;;;;-2.95;83.08;98516.59;99922;1297;111882;-69
2022/12/12 02:01:39;;;;;;;19.10;12.40;;;;;;;-2.92;82.75;98513.50;99663;1301;138144;-70
2022/12/12 02:04:04;;;;;;;18.90;12.60;;;;;;;-2.90;82.86;98514.16;99878;1290;97868;-68
2022/12/12 02:06:29;;;;;;;20.00;12.90;;;;;;;-2.88;82.66;98515.67;99777;1295;137530;-69
2022/12/12 02:08:56;;;;;;;20.80;13.00;;;;;;;-2.88;82.57;98515.52;99858;1296;97724;-68
2022/12/12 02:11:19;;;;;;;21.30;14.00;;;;;;;-2.88;82.81;98520.11;99884;1297;111107;-70
2022/12/12 02:13:43;;;;;;;21.30;13.20;;;;;;;-2.88;82.78;98518.41;99780;1294;138776;-69
2022/12/12 02:16:16;;;;;;;21.10;13.20;;;;;;;-2.91;82.79;98513.33;99938;1297;98135;-70
2022/12/12 02:18:51;;;;;;;21.60;12.90;;;;;;;-2.92;82.66;98511.45;99754;1300;137331;-69
2022/12/12 02:21:20;;;;;;;19.30;11.70;;;;;;;-2.96;82.78;98508.60;99885;1290;97737;-69
2022/12/12 02:24:40;;;;;;;18.10;11.10;;;;;;;-2.95;82.98;98509.11;99735;1299;138238;-68
2022/12/12 02:27:30;;;;;;;16.40;10.90;;;;;;;-2.92;83.13;98506.54;98794;1312;107917;-69
2022/12/12 02:30:09;;;;;;;15.10;9.90;;;;;;;-2.91;82.97;98509.08;98711;1305;138655;-69
2022/12/12 02:32:43;;;;;;;15.60;9.80;;;;;;;-2.88;83.08;98507.70;98096;1311;1002925;-68
2022/12/12 02:35:15;;;;;;;14.50;9.30;;;;;;;-2.87;82.95;98509.56;98784;1312;97854;-69
2022/12/12 02:37:48;;;;;;;17.80;11.10;;;;;;;-2.86;82.89;98513.48;98705;1306;139159;-68
2022/12/12 02:40:20;;;;;;;18.20;11.10;;;;;;;-2.82;83.08;98516.68;98811;1299;107818;-67
2022/12/12 02:42:48;;;;;;;16.20;10.60;;;;;;;-2.82;82.83;98520.77;98795;1305;137783;-68
2022/12/12 02:45:19;;;;;;;17.70;11.20;;;;;;;-2.82;83.07;98516.17;98802;1312;107793;-68
2022/12/12 02:47:47;;;;;;;15.10;10.00;;;;;;;-2.83;83.05;98518.73;99123;1312;97869;-68
2022/12/12 02:50:16;;;;;;;16.10;10.40;;;;;;;-2.84;83.03;98517.55;98833;1304;111155;-68
2022/12/12 02:52:42;;;;;;;16.60;10.20;;;;;;;-2.84;82.99;98518.58;98793;1312;106417;-68
2022/12/12 02:55:07;;;;;;;16.50;11.10;;;;;;;-2.84;83.16;98524.02;98697;1296;138405;-69
2022/12/12 02:57:32;;;;;;;15.50;9.70;;;;;;;-2.83;82.96;98525.71;98903;1311;108095;-68
2022/12/12 02:59:57;;;;;;;14.70;9.60;;;;;;;-2.82;83.08;98526.05;98708;1311;138586;-69
2022/12/12 03:02:48;;;;;;;14.90;9.00;;;;;;;-2.79;82.79;98527.04;99406;1306;111662;-68
2022/12/12 03:08:34;;;;;;;15.60;10.50;;;;;;;-2.71;82.89;98525.10;99503;1307;96523;-68
2022/12/12 03:11:01;;;;;;;13.90;9.50;;;;;;;-2.71;82.86;98518.80;99437;1298;106969;-68
2022/12/12 03:13:35;;;;;;;17.30;11.20;;;;;;;-2.74;82.29;98520.52;99420;1307;138113;-69
2022/12/12 03:16:10;;;;;;;15.70;10.70;;;;;;;-2.73;82.74;98521.38;99534;1300;112169;-68
2022/12/12 03:18:40;;;;;;;17.00;11.10;;;;;;;-2.72;82.69;98515.25;99338;1299;137914;-68
2022/12/12 03:21:07;;;;;;;16.70;10.40;;;;;;;-2.70;82.81;98507.91;99518;1305;98361;-68
2022/12/12 03:23:34;;;;;;;14.50;8.60;;;;;;;-2.74;82.86;98503.35;99327;1307;218456;-68
2022/12/12 03:26:03;;;;;;;16.00;10.50;;;;;;;-2.77;82.68;98498.61;99341;1305;138301;-68
2022/12/12 03:28:33;;;;;;;17.60;10.50;;;;;;;-2.79;82.86;98495.74;99473;1305;111928;-69
2022/12/12 03:30:59;;;;;;;14.80;9.30;;;;;;;-2.78;82.76;98493.18;99383;1299;138933;-68
2022/12/12 03:33:29;;;;;;;12.30;8.40;;;;;;;-2.78;82.71;98493.52;99423;1299;99073;-68
2022/12/12 03:35:59;;;;;;;15.50;9.80;;;;;;;-2.76;82.88;98494.19;99355;1305;138934;-69
2022/12/12 03:38:27;;;;;;;14.60;9.20;;;;;;;-2.75;82.71;98493.31;99480;1302;97907;-68
2022/12/12 03:40:54;;;;;;;16.00;9.70;;;;;;;-2.76;82.99;98490.78;99524;1300;111507;-69
2022/12/12 03:43:22;;;;;;;15.10;10.00;;;;;;;-2.78;82.67;98491.80;99723;1297;137399;-69
2022/12/12 03:45:53;;;;;;;18.70;10.80;;;;;;;-2.82;82.63;98493.89;99915;1293;98314;-68
2022/12/12 03:48:21;;;;;;;15.00;9.70;;;;;;;-2.86;82.79;98491.53;99735;1294;137538;-68
2022/12/12 03:50:49;;;;;;;15.10;10.20;;;;;;;-2.90;83.00;98491.38;99109;1295;1003436;-68
2022/12/12 03:53:17;;;;;;;19.60;11.10;;;;;;;-2.95;83.25;98488.52;99848;1298;110399;-68
2022/12/12 03:55:45;;;;;;;17.30;10.60;;;;;;;-2.97;83.33;98488.21;99739;1293;138659;-68
2022/12/12 03:58:13;;;;;;;18.30;11.40;;;;;;;-2.98;83.38;98489.41;99848;1293;97857;-68
2022/12/12 04:00:41;;;;;;;16.80;10.00;;;;;;;-2.95;83.67;98489.73;99750;1285;138299;-68
2022/12/12 04:03:15;;;;;;;16.80;10.50;;;;;;;-2.92;83.74;98490.88;99873;1298;97704;-68
2022/12/12 04:08:25;;;;;;;15.30;9.90;;;;;;;-2.79;84.16;98487.75;99866;1292;107818;-68
2022/12/12 04:13:48;;;;;;;16.90;11.20;;;;;;;-2.68;83.68;98482.92;99777;1295;137168;-69
2022/12/12 04:16:15;;;;;;;16.20;10.80;;;;;;;-2.66;83.99;98482.90;99863;1294;97853;-68
2022/12/12 04:18:49;;;;;;;17.70;11.60;;;;;;;-2.64;83.88;98482.20;99787;1300;137538;-68
2022/12/12 04:24:16;;;;;;;17.70;11.20;;;;;;;-2.68;83.91;98472.70;99919;1298;139307;-68
2022/12/12 04:26:45;;;;;;;18.40;11.60;;;;;;;-2.73;84.05;98472.89;99874;1295;107746;-68
2022/12/12 04:29:25;;;;;;;17.50;11.10;;;;;;;-2.75;83.94;98472.58;99973;1290;98095;-68
2022/12/12 04:31:52;;;;;;;17.50;11.20;;;;;;;-2.75;84.12;98466.44;99804;1295;139092;-69
2022/12/12 04:34:25;;;;;;;15.10;9.80;;;;;;;-2.73;84.25;98465.25;99891;1294;106769;-69
2022/12/12 04:36:50;;;;;;;13.40;9.30;;;;;;;-2.70;84.60;98463.01;99727;1294;139481;-69
2022/12/12 04:39:15;;;;;;;14.20;9.10;;;;;;;-2.69;84.29;98466.41;99882;1292;107476;-68
2022/12/12 04:41:42;;;;;;;13.30;9.50;;;;;;;-2.68;84.36;98464.87;99872;1277;97938;-69
2022/12/12 04:44:09;;;;;;;14.40;9.40;;;;;;;-2.65;84.70;98463.84;99804;1294;137920;-69
2022/12/12 04:46:36;;;;;;;14.30;9.50;;;;;;;-2.63;84.82;98460.23;99905;1297;107494;-69
2022/12/12 04:49:05;;;;;;;14.60;9.50;;;;;;;-2.60;84.55;98460.73;99780;1291;137585;-69
2022/12/12 04:51:33;;;;;;;14.00;9.50;;;;;;;-2.60;84.89;98459.70;99904;1294;106778;-69
2022/12/12 04:54:03;;;;;;;16.30;10.00;;;;;;;-2.61;84.73;98461.59;99802;1294;137532;-70
2022/12/12 04:56:30;;;;;;;13.80;9.10;;;;;;;-2.64;84.77;98461.78;99905;1298;110799;-69
2022/12/12 04:58:54;;;;;;;14.70;9.50;;;;;;;-2.65;84.91;98458.40;99895;1288;106228;-69
2022/12/12 05:01:27;;;;;;;15.80;9.20;;;;;;;-2.64;85.08;98453.27;99853;1287;138189;-69
2022/12/12 05:03:54;;;;;;;14.50;8.80;;;;;;;-2.63;85.23;98455.81;100193;1297;107480;-69
2022/12/12 05:06:26;;;;;;;13.90;8.90;;;;;;;-2.61;85.10;98450.69;99837;1293;140324;-69
2022/12/12 05:08:52;;;;;;;14.00;8.60;;;;;;;-2.55;85.59;98448.77;100057;1294;109833;-69
2022/12/12 05:11:17;;;;;;;15.30;9.00;;;;;;;-2.52;85.58;98451.29;99846;1299;106578;-69
2022/12/12 05:13:42;;;;;;;14.70;9.10;;;;;;;-2.46;85.67;98453.64;100279;1291;138239;-69
2022/12/12 05:16:16;;;;;;;12.80;9.10;;;;;;;-2.42;85.67;98449.69;99867;1293;108123;-69
2022/12/12 05:18:40;;;;;;;13.60;9.10;;;;;;;-2.42;85.90;98443.89;99778;1287;139266;-69
2022/12/12 05:21:04;;;;;;;15.10;10.50;;;;;;;-2.40;85.64;98441.49;99941;1294;110716;-69
2022/12/12 05:23:28;;;;;;;17.00;10.90;;;;;;;-2.40;85.91;98444.73;99858;1294;107499;-69
2022/12/12 05:25:57;;;;;;;18.00;11.00;;;;;;;-2.41;85.89;98442.17;99800;1293;137702;-70
2022/12/12 05:28:21;;;;;;;16.50;9.70;;;;;;;-2.40;86.15;98440.31;99923;1293;106756;-69
2022/12/12 05:30:44;;;;;;;15.90;10.50;;;;;;;-2.39;85.98;98440.80;99753;1294;138128;-69
2022/12/12 05:33:08;;;;;;;15.90;9.90;;;;;;;-2.35;86.26;98443.83;99876;1299;111078;-68
2022/12/12 05:35:32;;;;;;;15.50;9.50;;;;;;;-2.34;86.01;98436.66;99861;1301;106728;-69
2022/12/12 05:37:56;;;;;;;14.70;10.20;;;;;;;-2.33;86.21;98436.84;99782;1294;138035;-68
2022/12/12 05:40:20;;;;;;;15.40;10.10;;;;;;;-2.31;86.09;98443.46;99868;1295;107893;-68
2022/12/12 05:42:44;;;;;;;17.60;11.70;;;;;;;-2.29;86.16;98437.14;99746;1298;138305;-68
2022/12/12 05:45:10;;;;;;;15.30;10.40;;;;;;;-2.23;86.44;98434.36;99862;1293;110434;-69
2022/12/12 05:47:34;;;;;;;20.10;11.50;;;;;;;-2.22;86.40;98430.77;99891;1293;107510;-68
2022/12/12 05:49:57;;;;;;;18.80;11.70;;;;;;;-2.21;86.38;98433.80;99820;1294;138390;-68
2022/12/12 05:52:21;;;;;;;17.30;11.30;;;;;;;-2.17;86.48;98431.38;99890;1301;107740;-69
2022/12/12 05:54:44;;;;;;;20.80;12.20;;;;;;;-2.14;86.67;98429.50;99779;1298;138440;-68
2022/12/12 05:57:08;;;;;;;22.10;13.40;;;;;;;-2.11;86.61;98428.63;99882;1293;111530;-69
2022/12/12 05:59:32;;;;;;;22.60;12.60;;;;;;;-2.12;86.45;98429.14;99889;1293;106629;-68
2022/12/12 06:01:55;;;;;;;16.90;11.30;;;;;;;-2.09;86.66;98429.78;99777;1293;140097;-69
2022/12/12 06:04:19;;;;;;;19.60;12.80;;;;;;;-2.04;86.84;98430.92;99890;1300;107478;-68
2022/12/12 06:06:42;;;;;;;18.50;12.40;;;;;;;-2.00;86.72;98433.41;99761;1300;138399;-69
2022/12/12 06:09:06;;;;;;;19.60;12.90;;;;;;;-1.97;86.54;98431.19;99149;1292;1003341;-69
2022/12/12 06:11:30;;;;;;;21.10;13.50;;;;;;;-1.96;86.73;98432.02;99881;1294;106794;-71
2022/12/12 06:13:53;;;;;;;22.00;13.30;;;;;;;-1.93;86.81;98435.23;99762;1293;138988;-70
2022/12/12 06:16:18;;;;;;;23.10;13.70;;;;;;;-1.94;86.54;98435.08;99870;1293;107397;-68
2022/12/12 06:18:42;;;;;;;19.70;12.30;;;;;;;-1.92;86.46;98443.05;99757;1287;138352;-69
2022/12/12 06:21:08;;;;;;;21.80;13.10;;;;;;;-1.91;86.69;98447.30;99867;1293;110112;-69
2022/12/12 06:23:34;;;;;;;22.20;14.10;;;;;;;-1.89;86.70;98443.88;99819;1293;105743;-69
2022/12/12 06:25:57;;;;;;;20.50;13.50;;;;;;;-1.88;86.77;98447.77;99960;1301;138331;-69
2022/12/12 06:28:21;;;;;;;20.90;12.90;;;;;;;-1.87;86.89;98447.09;99846;1294;108003;-69
2022/12/12 06:30:44;;;;;;;21.70;13.60;;;;;;;-1.87;86.79;98449.80;99808;1293;138311;-69
2022/12/12 06:33:08;;;;;;;21.80;13.40;;;;;;;-1.87;86.74;98449.12;99932;1295;112661;-69
2022/12/12 06:35:32;;;;;;;22.20;13.10;;;;;;;-1.87;86.80;98449.30;99899;1287;107256;-68
2022/12/12 06:37:55;;;;;;;22.80;14.10;;;;;;;-1.88;86.86;98449.98;99813;1293;138291;-71
2022/12/12 06:40:19;;;;;;;23.40;13.40;;;;;;;-1.87;86.87;98450.99;99816;1287;107880;-70
2022/12/12 06:42:42;;;;;;;23.80;14.50;;;;;;;-1.84;87.08;98458.28;99807;1297;138988;-68
2022/12/12 06:45:11;;;;;;;24.30;15.00;;;;;;;-1.82;87.26;98456.71;99967;1287;110246;-70
2022/12/12 06:47:36;;;;;;;19.40;13.10;;;;;;;-1.78;87.24;98459.60;99826;1293;107337;-69
2022/12/12 06:49:59;;;;;;;22.40;12.80;;;;;;;-1.77;87.26;98458.91;99775;1301;138401;-69
2022/12/12 06:52:23;;;;;;;20.20;13.40;;;;;;;-1.74;87.47;98461.77;99925;1284;107646;-70
2022/12/12 06:54:47;;;;;;;20.80;13.50;;;;;;;-1.70;87.42;98462.90;99782;1294;138234;-69
2022/12/12 06:57:11;;;;;;;25.60;13.80;;;;;;;-1.66;87.71;98459.79;99896;1293;110876;-69
2022/12/12 06:59:49;;;;;;;18.70;13.40;;;;;;;-1.62;87.25;98459.23;99871;1293;107511;-69
2022/12/12 07:02:17;;;;;;;20.20;13.60;;;;;;;-1.60;87.21;98457.85;99534;1288;138448;-69
2022/12/12 07:04:41;;;;;;;23.10;14.60;;;;;;;-1.57;87.58;98460.53;99860;1293;107460;-70
2022/12/12 07:07:04;;;;;;;22.80;13.80;;;;;;;-1.52;87.66;98457.91;99837;1301;139089;-69
2022/12/12 07:09:28;;;;;;;19.60;13.40;;;;;;;-1.47;87.85;98454.77;99871;1293;112486;-69
2022/12/12 07:11:52;;;;;;;19.90;13.30;;;;;;;-1.44;87.50;98450.82;99836;1294;107311;-69
2022/12/12 07:14:17;;;;;;;22.00;13.70;;;;;;;-1.41;87.41;98454.89;100084;1294;138121;-69
2022/12/12 07:16:41;;;;;;;20.20;13.40;;;;;;;-1.40;87.39;98456.07;100379;1285;107768;-71
2022/12/12 07:19:05;;;;;;;19.30;12.70;;;;;;;-1.38;87.42;98462.85;99815;1287;143584;-70
2022/12/12 07:21:28;;;;;;;22.40;14.60;;;;;;;-1.36;87.47;98460.27;99896;1301;110249;-70
2022/12/12 07:23:52;;;;;;;19.90;13.40;;;;;;;-1.36;87.30;98462.83;99819;1285;108842;-70
2022/12/12 07:26:22;;;;;;;19.90;13.40;;;;;;;-1.36;87.48;98463.17;99880;1294;138277;-69
2022/12/12 07:28:54;;;;;;;23.10;12.80;;;;;;;-1.36;87.40;98464.20;99835;1293;107989;-71
2022/12/12 07:31:27;;;;;;;18.80;12.60;;;;;;;-1.35;87.69;98461.61;99751;1290;138257;-69
2022/12/12 07:33:51;;;;;;;19.60;11.80;;;;;;;-1.30;87.72;98459.49;99858;1292;111210;-71
2022/12/12 07:36:16;;;;;;;19.20;12.50;;;;;;;-1.29;87.52;98464.08;99763;1292;139596;-70
2022/12/12 07:38:40;;;;;;;19.00;12.80;;;;;;;-1.28;87.59;98462.71;99907;1301;98371;-69
2022/12/12 07:41:06;;;;;;;24.60;14.60;;;;;;;-1.25;87.66;98467.13;99901;1296;107317;-70
2022/12/12 07:43:29;;;;;;;19.80;12.70;;;;;;;-1.24;87.64;98467.63;99749;1293;138271;-70
2022/12/12 07:45:57;;;;;;;21.70;13.30;;;;;;;-1.23;87.84;98468.12;99904;1288;110641;-70
2022/12/12 07:48:20;;;;;;;20.40;13.20;;;;;;;-1.22;87.59;98469.30;99803;1295;138390;-69
2022/12/12 07:50:44;;;;;;;18.60;12.40;;;;;;;-1.20;87.75;98470.14;99872;1301;98515;-69
2022/12/12 07:53:08;;;;;;;13.60;9.90;;;;;;;-1.18;87.69;98466.34;99895;1294;107438;-70
2022/12/12 07:55:32;;;;;;;18.60;12.40;;;;;;;-1.14;88.04;98468.67;99727;1293;138161;-70
2022/12/12 07:57:59;;;;;;;19.70;12.80;;;;;;;-1.12;87.62;98469.48;99913;1288;112921;-70
2022/12/12 08:00:56;;;;;;;17.40;11.90;;;;;;;-1.12;87.57;98476.48;99689;1301;138599;-70
2022/12/12 08:03:22;;;;;;;19.00;12.60;;;;;;;-1.12;87.69;98471.70;99966;1294;98358;-70
2022/12/12 08:05:46;;;;;;;19.20;12.20;;;;;;;-1.10;87.82;98465.70;99880;1293;107469;-70
2022/12/12 08:08:10;;;;;;;17.30;11.60;;;;;;;-1.08;87.78;98472.34;99791;1294;138499;-70
2022/12/12 08:10:34;;;;;;;18.00;12.40;;;;;;;-1.04;87.80;98475.70;99914;1285;110088;-70
2022/12/12 08:12:58;;;;;;;17.60;11.80;;;;;;;-1.00;87.81;98467.80;99742;1285;138252;-70
2022/12/12 08:15:22;;;;;;;19.80;12.30;;;;;;;-0.97;87.64;98469.96;99914;1300;98318;-70
2022/12/12 08:17:46;;;;;;;17.90;11.80;;;;;;;-0.93;87.64;98474.69;99879;1295;106967;-70
2022/12/12 08:20:11;;;;;;;18.10;11.70;;;;;;;-0.88;87.69;98474.13;99772;1301;138163;-70
2022/12/12 08:22:35;;;;;;;19.50;11.70;;;;;;;-0.85;87.53;98476.80;99928;1287;111184;-70
2022/12/12 08:24:59;;;;;;;19.30;11.40;;;;;;;-0.82;87.64;98474.02;99777;1291;138191;-70
2022/12/12 08:27:22;;;;;;;20.40;12.80;;;;;;;-0.80;87.45;98472.61;98459;1285;1003684;-70
2022/12/12 08:29:46;;;;;;;18.20;12.70;;;;;;;-0.79;87.56;98474.31;99938;1294;106796;-71
2022/12/12 08:32:10;;;;;;;20.30;13.00;;;;;;;-0.78;87.70;98473.27;99656;1292;137633;-70
2022/12/12 08:34:34;;;;;;;22.50;12.70;;;;;;;-0.78;87.61;98473.09;99896;1280;110577;-71
2022/12/12 08:37:03;;;;;;;19.70;12.70;;;;;;;-0.75;87.66;98469.47;99745;1287;138291;-71
2022/12/12 08:39:28;;;;;;;19.90;11.30;;;;;;;-0.74;87.95;98469.43;99906;1293;97852;-70
2022/12/12 08:41:52;;;;;;;20.80;11.40;;;;;;;-0.68;88.11;98478.25;99881;1291;107224;-71
2022/12/12 08:44:18;;;;;;;17.30;10.50;;;;;;;-0.60;88.00;98476.23;99805;1293;140376;-71
2022/12/12 08:46:42;;;;;;;15.50;10.40;;;;;;;-0.51;87.81;98469.63;99952;1278;110934;-70
2022/12/12 08:49:06;;;;;;;15.30;10.10;;;;;;;-0.43;87.84;98471.19;99791;1293;137615;-70
2022/12/12 08:51:45;;;;;;;17.90;11.60;;;;;;;-0.35;87.74;98472.59;99952;1292;97927;-71
2022/12/12 08:54:16;;;;;;;17.90;11.10;;;;;;;-0.26;87.61;98471.08;99782;1293;137613;-70
2022/12/12 08:56:41;;;;;;;18.70;11.20;;;;;;;-0.21;87.36;98480.54;99890;1295;97934;-70
2022/12/12 08:59:06;;;;;;;17.90;11.70;;;;;;;-0.17;87.12;98473.65;99896;1293;110969;-70
2022/12/12 09:01:30;;;;;;;18.40;10.10;;;;;;;-0.13;87.16;98474.27;99826;1287;137573;-71
2022/12/12 09:03:55;;;;;;;15.60;10.50;;;;;;;-0.11;86.91;98473.55;99910;1287;98334;-71
2022/12/12 09:06:20;;;;;;;15.90;9.70;;;;;;;-0.08;86.93;98474.67;99784;1293;138707;-71
2022/12/12 09:08:44;;;;;;;16.30;9.00;;;;;;;-0.07;86.56;98474.31;99927;1301;97829;-71
2022/12/12 09:11:08;;;;;;;13.30;8.40;;;;;;;-0.06;86.51;98473.61;99914;1287;111118;-71
2022/12/12 09:13:32;;;;;;;14.90;8.70;;;;;;;-0.05;86.38;98472.74;99753;1293;138798;-70
2022/12/12 09:15:56;;;;;;;16.20;8.30;;;;;;;-0.04;86.20;98470.50;99894;1295;97696;-71
2022/12/12 09:18:19;;;;;;;18.00;8.90;;;;;;;-0.05;86.22;98472.40;99827;1294;137696;-71
2022/12/12 09:20:48;;;;;;;15.70;9.10;;;;;;;-0.04;86.16;98470.67;99892;1295;97836;-71
2022/12/12 09:23:12;;;;;;;17.00;9.30;;;;;;;-0.04;86.10;98470.85;100011;1300;110695;-71
2022/12/12 09:25:36;;;;;;;17.30;9.80;;;;;;;-0.05;86.00;98464.20;99749;1294;138249;-70
2022/12/12 09:28:06;;;;;;;15.40;9.30;;;;;;;-0.05;86.09;98474.27;99968;1295;97703;-71
2022/12/12 09:30:29;;;;;;;15.00;8.10;;;;;;;-0.08;86.00;98472.79;99829;1287;138409;-70
2022/12/12 09:32:53;;;;;;;13.50;8.10;;;;;;;-0.09;86.06;98468.73;99902;1294;97898;-70
2022/12/12 09:35:17;;;;;;;13.20;8.80;;;;;;;-0.09;85.93;98472.65;99928;1292;110404;-70
2022/12/12 09:37:40;;;;;;;13.90;8.00;;;;;;;-0.11;85.95;98471.83;99765;1291;139267;-70
2022/12/12 09:40:05;;;;;;;14.10;7.80;;;;;;;-0.11;86.00;98473.21;99872;1293;98335;-70
2022/12/12 09:42:32;;;;;;;16.50;9.30;;;;;;;-0.10;86.03;98473.52;99987;1294;138063;-70
2022/12/12 09:44:59;;;;;;;14.20;8.10;;;;;;;-0.09;86.05;98469.39;99906;1293;97736;-70
2022/12/12 09:47:33;;;;;;;13.90;8.90;;;;;;;-0.08;85.97;98474.15;99235;1287;1003095;-70
2022/12/12 09:50:05;;;;;;;15.50;8.00;;;;;;;-0.05;86.02;98477.86;99884;1293;140336;-70
2022/12/12 09:52:31;;;;;;;15.10;8.30;;;;;;;-0.01;86.02;98476.09;99957;1287;97730;-70
2022/12/12 09:54:55;;;;;;;12.20;8.00;;;;;;;0.03;85.86;98477.75;99814;1294;137916;-70
2022/12/12 09:57:29;;;;;;;13.20;7.10;;;;;;;0.04;85.67;98483.54;99931;1292;98262;-70
2022/12/12 09:59:58;;;;;;;12.40;7.90;;;;;;;0.05;85.70;98489.66;99977;1297;111289;-70
2022/12/12 10:02:43;;;;;;;12.00;7.70;;;;;;;0.09;85.68;98489.76;99791;1288;138155;-70
2022/12/12 10:05:18;;;;;;;12.60;7.10;;;;;;;0.12;85.59;98485.60;99853;1293;98299;-70
2022/12/12 10:07:46;;;;;;;14.90;7.70;;;;;;;0.16;85.60;98487.91;100044;1302;138893;-71
2022/12/12 10:10:20;;;;;;;16.00;8.80;;;;;;;0.18;85.46;98482.75;99885;1294;97842;-70
2022/12/12 10:12:44;;;;;;;15.00;8.10;;;;;;;0.22;85.21;98487.98;99811;1301;138019;-70
2022/12/12 10:15:20;;;;;;;14.00;8.10;;;;;;;0.26;85.34;98488.41;99898;1301;107835;-70
2022/12/12 10:17:46;;;;;;;16.30;8.70;;;;;;;0.31;85.17;98491.21;99930;1294;97819;-70
2022/12/12 10:20:17;;;;;;;17.00;8.20;;;;;;;0.35;85.20;98492.00;99710;1287;137759;-71
2022/12/12 10:22:48;;;;;;;12.90;7.10;;;;;;;0.36;84.96;98488.91;99926;1293;96504;-71
2022/12/12 10:25:21;;;;;;;14.00;7.80;;;;;;;0.40;84.81;98485.93;99813;1297;139846;-71
2022/12/12 10:28:01;;;;;;;11.50;7.30;;;;;;;0.45;84.88;98490.45;99970;1293;107724;-70
2022/12/12 10:30:25;;;;;;;14.30;7.40;;;;;;;0.49;84.52;98491.55;100134;1293;138158;-70
2022/12/12 10:33:02;;;;;;;13.80;6.20;;;;;;;0.52;84.46;98490.13;99875;1298;108646;-71
2022/12/12 10:35:38;;;;;;;12.20;6.20;;;;;;;0.56;84.35;98489.70;99873;1293;97916;-71
2022/12/12 10:38:19;;;;;;;12.80;6.20;;;;;;;0.62;84.19;98484.64;99803;1297;137670;-71
2022/12/12 10:40:57;;;;;;;10.50;6.30;;;;;;;0.68;84.20;98488.60;99875;1295;106705;-71
2022/12/12 10:43:26;;;;;;;11.30;6.00;;;;;;;0.76;84.14;98486.73;99793;1285;138098;-70
2022/12/12 10:46:08;;;;;;;10.30;5.30;;;;;;;0.83;83.85;98481.45;99872;1294;107910;-70
2022/12/12 10:48:32;;;;;;;9.50;6.10;;;;;;;0.92;83.64;98484.02;99798;1293;138117;-70
2022/12/12 10:51:01;;;;;;;12.10;5.90;;;;;;;0.97;83.40;98481.16;99935;1293;110228;-71
2022/12/12 10:53:25;;;;;;;9.80;5.90;;;;;;;1.01;83.17;98486.38;99889;1295;105722;-70
2022/12/12 10:55:52;;;;;;;12.10;6.10;;;;;;;1.05;83.19;98484.40;99825;1293;139606;-70
2022/12/12 10:58:17;;;;;;;8.80;5.20;;;;;;;1.10;82.97;98485.31;99992;1293;107110;-71
2022/12/12 11:00:42;;;;;;;12.20;6.10;;;;;;;1.15;82.89;98488.30;99805;1291;137998;-70
2022/12/12 11:03:25;;;;;;;10.70;5.80;;;;;;;1.18;82.64;98493.69;99890;1293;111633;-71
2022/12/12 11:05:50;;;;;;;8.60;5.20;;;;;;;1.21;82.46;98489.00;99890;1298;107217;-70
2022/12/12 11:08:25;;;;;;;9.10;5.80;;;;;;;1.21;82.18;98492.06;99864;1294;137861;-71
2022/12/12 11:11:03;;;;;;;10.80;6.00;;;;;;;1.20;82.11;98489.54;99923;1286;108016;-70
2022/12/12 11:13:27;;;;;;;8.90;5.60;;;;;;;1.17;82.13;98487.89;99825;1294;139794;-71
2022/12/12 11:16:01;;;;;;;9.20;5.00;;;;;;;1.14;81.80;98482.50;99828;1287;111625;-70
2022/12/12 11:18:34;;;;;;;9.90;5.10;;;;;;;1.06;81.67;98485.75;99769;1293;138125;-71
2022/12/12 11:21:08;;;;;;;9.30;5.60;;;;;;;1.00;81.46;98489.65;99845;1301;98516;-70
2022/12/12 11:23:38;;;;;;;10.80;5.80;;;;;;;0.96;81.85;98493.69;99865;1294;105734;-71
2022/12/12 11:26:11;;;;;;;12.60;7.10;;;;;;;0.94;81.80;98495.25;99791;1293;138050;-71